AirNav   Duncan Aviation - Near you to keep you flying
 
 1128 users online  

66XS Baylie Airport
Westminster, Texas, USA

GOING TO WESTMINSTER?


FAA INFORMATION EFFECTIVE 19 MAY 2022

Location

FAA Identifier: 66XS
Lat/Long: 33-23-47.3990N 096-29-18.9490W
33-23.789983N 096-29.315817W
33.3964997,-96.4885969
(estimated)
Elevation: 685 ft. / 209 m (estimated)
Variation: 06E (1995)
From city: 5 miles N of WESTMINSTER, TX
Time zone: UTC -5 (UTC -6 during Standard Time)
Zip code: 75495

Airport Operations

Airport use: Private use. Permission required prior to landing
Activation date: 06/1997
Control tower: no
ARTCC: FORT WORTH CENTER
FSS: FORT WORTH FLIGHT SERVICE STATION
Attendance: UNATNDD
Wind indicator: yes
Segmented circle: no
Lights: ACTVT LIRL RY 13/31 - 122.95

Airport Communications

WX ASOS at TKI (14 nm S): PHONE 972-548-8525

Nearby radio navigation aids

VOR radial/distance  VOR name  Freq  Var
BYPr230/15.3BONHAM VORTAC114.6006E
CVEr028/36.8COWBOY VOR/DME116.2006E

 
NDB name  Hdg/Dist  Freq  Var  ID
DENISON155/27.334106EDNI -.. -. ..
MESQUITE000/35.324803EPQF .--. --.- ..-.

Airport Services

Runway Information

Runway 13/31

Dimensions: 2200 x 50 ft. / 671 x 15 m
Surface: turf, in fair condition
Runway edge lights: low intensity
RUNWAY 13  RUNWAY 31
Traffic pattern: leftright
Obstructions: none70 ft. trees, 200 ft. from runway

Airport Ownership and Management from official FAA records

Ownership: Privately-owned
Owner: AMY B BAYLIE
17046 FM 3133
VAN ALSTYNE, TX 75495
Phone 214-402-1606
Manager: GARY W HAASS
17046 FM 3133
VAN ALSTYNE, TX 75495
Phone 214-402-1606

Airport Operational Statistics

Aircraft based on the field: 2
Single engine airplanes: 2
    

Additional Remarks

PARACHUTE JUMPING ACTIVITY ON & INVOF ARPT DALGT HRS ONLY.
FOR CD CTC FORT WORTH ARTCC AT 817-858-7584.

Instrument Procedures

There are no published instrument procedures at 66XS.

Some nearby airports with instrument procedures:

KTKI - McKinney National Airport (14 nm S)
KSWI - Sherman Municipal Airport (15 nm N)
F00 - Jones Field Airport (20 nm NE)
KGYI - North Texas Regional Airport/Perrin Field (21 nm NW)
7F3 - Caddo Mills Municipal Airport (25 nm SE)
 
Loc | Ops | Rwys | IFR | FBO | Links
Com | Nav | Svcs | Stats | Notes

City of Fort Worth
 
Area around 66XS (Baylie Airport)
 
Road maps at: MapQuest Bing Google
 
Aerial photo
No photo
 
Sectional chart

 
Airport distance calculator
Flying to Baylie Airport? Find the distance to fly.

From to 66XS

Sunrise and sunset
Times for 27-May-2022
 Local
(UTC-5)
 Zulu
(UTC)
Morning civil twilight05:5210:52
Sunrise06:2011:20
Sunset20:2601:26
Evening civil twilight20:5401:54

Current date and time
Zulu (UTC)  27-May-2022 23:21:31
Local (UTC-5)  27-May-2022 18:21:31
 
METAR
KTKI 
14nm S 
272253Z 11005KT 10SM CLR 29/12 A2995 RMK AO2 SLP142 T02940122
KF00 
20nm NE 
272255Z AUTO 00000KT 10SM CLR 29/14 A2996 RMK AO2 T02880136
KGYI 
21nm NW 
272250Z 10004KT 10SM SKC 30/13 A2997
TAF
KDAL 
37nm SW 
272051Z 2721/2818 12005KT P6SM SKC FM281600 17017G27KT P6SM SKC
KDFW 
40nm SW 
272051Z 2721/2824 12005KT P6SM SKC FM281600 17017G27KT P6SM SKC
NOTAMs
Click for the latest NOTAMs
NOTAMs are issued by the DoD/FAA and will open in a separate window not controlled by AirNav.

 

 
 

Would you like to see your business listed on this page?

 If your business provides an interesting product or service to pilots, flight crews, aircraft, or users of the Baylie Airport, you should consider listing it here.  To start the listing process, click on the button below
 
Add a business
 

Other Pages about Baylie Airport

Update a link
 
Copyright © AirNav, LLC. All rights reserved. Privacy Policy  Contact